Terminal Aerodrome Forecast
Issued by NWS Memphis, TN

Home | Current Version | Previous Version | Text Only | Print | Product List | Glossary On
Versions: 1 2 3 4 5 6 7 8 9 10 11 12 13 14 15 16 17 18 19 20 21 22 23 24 25 26 27 28 29 30 31 32 33 34
000
FTUS44 KMEG 180527
TAFMEM
TAF
KMEM 180527Z 1806/1906 02004KT P6SM OVC150
     FM181000 06004KT P6SM VCSH OVC035
     FM181700 07005KT P6SM VCSH OVC020
     FM190000 07005KT P6SM OVC015
     FM190300 11004KT P6SM OVC003=

USA.gov is the U.S. government's official web portal to all federal, state and local government web resources and services.